sensor_id;sensor_type;location;lat;lon;timestamp;pressure;altitude;pressure_sealevel;temperature
20736;BMP180;10528;52.124;5.196;2023-05-16T00:00:37;101876.00;;;16.70
20736;BMP180;10528;52.124;5.196;2023-05-16T00:03:05;101877.00;;;16.70
20736;BMP180;10528;52.124;5.196;2023-05-16T00:05:32;101880.00;;;16.70
20736;BMP180;10528;52.124;5.196;2023-05-16T00:07:59;101876.00;;;16.60
20736;BMP180;10528;52.124;5.196;2023-05-16T00:10:26;101881.00;;;16.60
20736;BMP180;10528;52.124;5.196;2023-05-16T00:12:53;101880.00;;;16.50
20736;BMP180;10528;52.124;5.196;2023-05-16T00:15:22;101876.00;;;16.50
20736;BMP180;10528;52.124;5.196;2023-05-16T00:17:50;101879.00;;;16.50
20736;BMP180;10528;52.124;5.196;2023-05-16T00:20:17;101886.00;;;16.50
20736;BMP180;10528;52.124;5.196;2023-05-16T00:22:48;101884.00;;;16.50
20736;BMP180;10528;52.124;5.196;2023-05-16T00:25:15;101886.00;;;16.40
20736;BMP180;10528;52.124;5.196;2023-05-16T00:27:42;101884.00;;;16.40
20736;BMP180;10528;52.124;5.196;2023-05-16T00:30:09;101889.00;;;16.40
20736;BMP180;10528;52.124;5.196;2023-05-16T00:32:37;101892.00;;;16.40
20736;BMP180;10528;52.124;5.196;2023-05-16T00:35:05;101875.00;;;16.40
20736;BMP180;10528;52.124;5.196;2023-05-16T00:37:32;101884.00;;;16.40
20736;BMP180;10528;52.124;5.196;2023-05-16T00:39:59;101884.00;;;16.30
20736;BMP180;10528;52.124;5.196;2023-05-16T00:42:26;101890.00;;;16.30
20736;BMP180;10528;52.124;5.196;2023-05-16T00:44:53;101891.00;;;16.30
20736;BMP180;10528;52.124;5.196;2023-05-16T00:47:20;101888.00;;;16.30
20736;BMP180;10528;52.124;5.196;2023-05-16T00:49:47;101890.00;;;16.30
20736;BMP180;10528;52.124;5.196;2023-05-16T00:52:15;101891.00;;;16.30
20736;BMP180;10528;52.124;5.196;2023-05-16T00:54:42;101884.00;;;16.20
20736;BMP180;10528;52.124;5.196;2023-05-16T00:57:09;101882.00;;;16.20
20736;BMP180;10528;52.124;5.196;2023-05-16T00:59:36;101890.00;;;16.20
20736;BMP180;10528;52.124;5.196;2023-05-16T01:02:03;101891.00;;;16.20
20736;BMP180;10528;52.124;5.196;2023-05-16T01:04:31;101892.00;;;16.20
20736;BMP180;10528;52.124;5.196;2023-05-16T01:07:01;101878.00;;;16.20
20736;BMP180;10528;52.124;5.196;2023-05-16T01:09:28;101883.00;;;16.20
20736;BMP180;10528;52.124;5.196;2023-05-16T01:14:57;101889.00;;;16.10
20736;BMP180;10528;52.124;5.196;2023-05-16T01:17:52;101891.00;;;16.10
20736;BMP180;10528;52.124;5.196;2023-05-16T01:23:39;101891.00;;;16.00
20736;BMP180;10528;52.124;5.196;2023-05-16T01:26:23;101896.00;;;16.00
20736;BMP180;10528;52.124;5.196;2023-05-16T01:28:51;101890.00;;;16.00
20736;BMP180;10528;52.124;5.196;2023-05-16T01:31:20;101896.00;;;16.00
20736;BMP180;10528;52.124;5.196;2023-05-16T01:33:47;101902.00;;;16.00
20736;BMP180;10528;52.124;5.196;2023-05-16T01:36:33;101904.00;;;16.00
20736;BMP180;10528;52.124;5.196;2023-05-16T01:39:36;101893.00;;;16.00
20736;BMP180;10528;52.124;5.196;2023-05-16T01:42:11;101888.00;;;15.90
20736;BMP180;10528;52.124;5.196;2023-05-16T01:47:21;101894.00;;;15.90
20736;BMP180;10528;52.124;5.196;2023-05-16T01:50:14;101896.00;;;15.90
20736;BMP180;10528;52.124;5.196;2023-05-16T01:52:58;101891.00;;;15.90
20736;BMP180;10528;52.124;5.196;2023-05-16T01:55:42;101900.00;;;15.80
20736;BMP180;10528;52.124;5.196;2023-05-16T01:58:11;101896.00;;;15.80
20736;BMP180;10528;52.124;5.196;2023-05-16T02:00:42;101898.00;;;15.80
20736;BMP180;10528;52.124;5.196;2023-05-16T02:03:10;101900.00;;;15.80
20736;BMP180;10528;52.124;5.196;2023-05-16T02:05:37;101911.00;;;15.80
20736;BMP180;10528;52.124;5.196;2023-05-16T02:08:05;101902.00;;;15.80
20736;BMP180;10528;52.124;5.196;2023-05-16T02:10:32;101912.00;;;15.70
20736;BMP180;10528;52.124;5.196;2023-05-16T02:12:59;101912.00;;;15.70
20736;BMP180;10528;52.124;5.196;2023-05-16T02:15:26;101918.00;;;15.70
20736;BMP180;10528;52.124;5.196;2023-05-16T02:17:53;101916.00;;;15.70
20736;BMP180;10528;52.124;5.196;2023-05-16T02:20:20;101910.00;;;15.60
20736;BMP180;10528;52.124;5.196;2023-05-16T02:22:47;101916.00;;;15.60
20736;BMP180;10528;52.124;5.196;2023-05-16T02:25:15;101923.00;;;15.60
20736;BMP180;10528;52.124;5.196;2023-05-16T02:27:42;101926.00;;;15.60
20736;BMP180;10528;52.124;5.196;2023-05-16T02:30:10;101911.00;;;15.60
20736;BMP180;10528;52.124;5.196;2023-05-16T02:32:40;101920.00;;;15.60
20736;BMP180;10528;52.124;5.196;2023-05-16T02:35:11;101925.00;;;15.60
20736;BMP180;10528;52.124;5.196;2023-05-16T02:37:38;101928.00;;;15.60
20736;BMP180;10528;52.124;5.196;2023-05-16T02:40:06;101931.00;;;15.50
20736;BMP180;10528;52.124;5.196;2023-05-16T02:42:35;101930.00;;;15.50
20736;BMP180;10528;52.124;5.196;2023-05-16T02:45:02;101930.00;;;15.50
20736;BMP180;10528;52.124;5.196;2023-05-16T02:47:29;101925.00;;;15.50
20736;BMP180;10528;52.124;5.196;2023-05-16T02:49:56;101928.00;;;15.50
20736;BMP180;10528;52.124;5.196;2023-05-16T02:52:23;101927.00;;;15.50
20736;BMP180;10528;52.124;5.196;2023-05-16T02:54:50;101933.00;;;15.50
20736;BMP180;10528;52.124;5.196;2023-05-16T02:57:37;101930.00;;;15.50
20736;BMP180;10528;52.124;5.196;2023-05-16T03:00:04;101932.00;;;15.40
20736;BMP180;10528;52.124;5.196;2023-05-16T03:02:31;101933.00;;;15.40
20736;BMP180;10528;52.124;5.196;2023-05-16T03:04:58;101928.00;;;15.40
20736;BMP180;10528;52.124;5.196;2023-05-16T03:07:25;101938.00;;;15.40
20736;BMP180;10528;52.124;5.196;2023-05-16T03:09:52;101934.00;;;15.40
20736;BMP180;10528;52.124;5.196;2023-05-16T03:12:19;101936.00;;;15.30
20736;BMP180;10528;52.124;5.196;2023-05-16T03:14:46;101934.00;;;15.30
20736;BMP180;10528;52.124;5.196;2023-05-16T03:17:13;101936.00;;;15.30
20736;BMP180;10528;52.124;5.196;2023-05-16T03:19:39;101941.00;;;15.30
20736;BMP180;10528;52.124;5.196;2023-05-16T03:22:06;101948.00;;;15.30
20736;BMP180;10528;52.124;5.196;2023-05-16T03:24:33;101933.00;;;15.30
20736;BMP180;10528;52.124;5.196;2023-05-16T03:27:00;101937.00;;;15.20
20736;BMP180;10528;52.124;5.196;2023-05-16T03:29:29;101950.00;;;15.20
20736;BMP180;10528;52.124;5.196;2023-05-16T03:31:56;101943.00;;;15.20
20736;BMP180;10528;52.124;5.196;2023-05-16T03:34:23;101943.00;;;15.20
20736;BMP180;10528;52.124;5.196;2023-05-16T03:36:51;101947.00;;;15.20
20736;BMP180;10528;52.124;5.196;2023-05-16T03:39:18;101955.00;;;15.20
20736;BMP180;10528;52.124;5.196;2023-05-16T03:41:45;101953.00;;;15.20
20736;BMP180;10528;52.124;5.196;2023-05-16T03:44:12;101959.00;;;15.20
20736;BMP180;10528;52.124;5.196;2023-05-16T03:46:39;101957.00;;;15.10
20736;BMP180;10528;52.124;5.196;2023-05-16T03:49:06;101951.00;;;15.10
20736;BMP180;10528;52.124;5.196;2023-05-16T03:51:33;101966.00;;;15.10
20736;BMP180;10528;52.124;5.196;2023-05-16T03:53:59;101960.00;;;15.10
20736;BMP180;10528;52.124;5.196;2023-05-16T03:56:26;101951.00;;;15.10
20736;BMP180;10528;52.124;5.196;2023-05-16T03:58:53;101965.00;;;15.10
20736;BMP180;10528;52.124;5.196;2023-05-16T04:01:20;101967.00;;;15.10
20736;BMP180;10528;52.124;5.196;2023-05-16T04:03:48;101967.00;;;15.10
20736;BMP180;10528;52.124;5.196;2023-05-16T04:06:16;101960.00;;;15.10
20736;BMP180;10528;52.124;5.196;2023-05-16T04:08:43;101966.00;;;15.10
20736;BMP180;10528;52.124;5.196;2023-05-16T04:11:10;101969.00;;;15.10
20736;BMP180;10528;52.124;5.196;2023-05-16T04:13:37;101956.00;;;15.10
20736;BMP180;10528;52.124;5.196;2023-05-16T04:16:05;101962.00;;;15.10
20736;BMP180;10528;52.124;5.196;2023-05-16T04:18:32;101967.00;;;15.10
20736;BMP180;10528;52.124;5.196;2023-05-16T04:20:59;101968.00;;;15.10
20736;BMP180;10528;52.124;5.196;2023-05-16T04:23:26;101973.00;;;15.10
20736;BMP180;10528;52.124;5.196;2023-05-16T04:25:53;101975.00;;;15.10
20736;BMP180;10528;52.124;5.196;2023-05-16T04:28:22;101981.00;;;15.10
20736;BMP180;10528;52.124;5.196;2023-05-16T04:30:49;101976.00;;;15.10
20736;BMP180;10528;52.124;5.196;2023-05-16T04:33:17;101971.00;;;15.20
20736;BMP180;10528;52.124;5.196;2023-05-16T04:35:44;101986.00;;;15.20
20736;BMP180;10528;52.124;5.196;2023-05-16T04:38:11;101985.00;;;15.20
20736;BMP180;10528;52.124;5.196;2023-05-16T04:40:38;101987.00;;;15.20
20736;BMP180;10528;52.124;5.196;2023-05-16T04:43:07;101984.00;;;15.30
20736;BMP180;10528;52.124;5.196;2023-05-16T04:45:34;101990.00;;;15.30
20736;BMP180;10528;52.124;5.196;2023-05-16T04:48:03;101989.00;;;15.30
20736;BMP180;10528;52.124;5.196;2023-05-16T04:50:30;102006.00;;;15.40
20736;BMP180;10528;52.124;5.196;2023-05-16T04:52:57;101996.00;;;15.40
20736;BMP180;10528;52.124;5.196;2023-05-16T04:55:24;102005.00;;;15.50
20736;BMP180;10528;52.124;5.196;2023-05-16T04:57:52;102002.00;;;15.60
20736;BMP180;10528;52.124;5.196;2023-05-16T05:00:19;102006.00;;;15.60
20736;BMP180;10528;52.124;5.196;2023-05-16T05:02:46;102010.00;;;15.70
20736;BMP180;10528;52.124;5.196;2023-05-16T05:05:13;102010.00;;;15.80
20736;BMP180;10528;52.124;5.196;2023-05-16T05:07:40;102012.00;;;15.80
20736;BMP180;10528;52.124;5.196;2023-05-16T05:10:07;102009.00;;;15.90
20736;BMP180;10528;52.124;5.196;2023-05-16T05:12:35;102009.00;;;15.90
20736;BMP180;10528;52.124;5.196;2023-05-16T05:15:02;102013.00;;;16.00
20736;BMP180;10528;52.124;5.196;2023-05-16T05:17:29;102013.00;;;16.10
20736;BMP180;10528;52.124;5.196;2023-05-16T05:19:56;102008.00;;;16.10
20736;BMP180;10528;52.124;5.196;2023-05-16T05:22:25;102011.00;;;16.20
20736;BMP180;10528;52.124;5.196;2023-05-16T05:24:51;102013.00;;;16.20
20736;BMP180;10528;52.124;5.196;2023-05-16T05:27:18;102011.00;;;16.30
20736;BMP180;10528;52.124;5.196;2023-05-16T05:29:45;102004.00;;;16.30
20736;BMP180;10528;52.124;5.196;2023-05-16T05:32:12;102004.00;;;16.40
20736;BMP180;10528;52.124;5.196;2023-05-16T05:34:39;102016.00;;;16.50
20736;BMP180;10528;52.124;5.196;2023-05-16T05:37:06;102025.00;;;16.70
20736;BMP180;10528;52.124;5.196;2023-05-16T05:39:33;102031.00;;;17.00
20736;BMP180;10528;52.124;5.196;2023-05-16T05:42:01;102031.00;;;17.30
20736;BMP180;10528;52.124;5.196;2023-05-16T05:44:29;102034.00;;;17.80
20736;BMP180;10528;52.124;5.196;2023-05-16T05:46:57;102025.00;;;18.30
20736;BMP180;10528;52.124;5.196;2023-05-16T05:49:26;102044.00;;;18.80
20736;BMP180;10528;52.124;5.196;2023-05-16T05:51:53;102039.00;;;19.30
20736;BMP180;10528;52.124;5.196;2023-05-16T05:54:20;102042.00;;;19.80
20736;BMP180;10528;52.124;5.196;2023-05-16T05:56:47;102049.00;;;20.30
20736;BMP180;10528;52.124;5.196;2023-05-16T05:59:14;102043.00;;;20.80
20736;BMP180;10528;52.124;5.196;2023-05-16T06:01:41;102039.00;;;21.10
20736;BMP180;10528;52.124;5.196;2023-05-16T06:04:10;102043.00;;;21.50
20736;BMP180;10528;52.124;5.196;2023-05-16T06:06:37;102037.00;;;21.90
20736;BMP180;10528;52.124;5.196;2023-05-16T06:09:05;102042.00;;;22.20
20736;BMP180;10528;52.124;5.196;2023-05-16T06:11:32;102049.00;;;22.50
20736;BMP180;10528;52.124;5.196;2023-05-16T06:13:59;102043.00;;;22.80
20736;BMP180;10528;52.124;5.196;2023-05-16T06:16:26;102053.00;;;23.10
20736;BMP180;10528;52.124;5.196;2023-05-16T06:18:53;102059.00;;;23.40
20736;BMP180;10528;52.124;5.196;2023-05-16T06:21:20;102065.00;;;23.70
20736;BMP180;10528;52.124;5.196;2023-05-16T06:23:47;102068.00;;;23.90
20736;BMP180;10528;52.124;5.196;2023-05-16T06:26:14;102069.00;;;24.00
20736;BMP180;10528;52.124;5.196;2023-05-16T06:28:41;102072.00;;;24.00
20736;BMP180;10528;52.124;5.196;2023-05-16T06:31:08;102070.00;;;23.80
20736;BMP180;10528;52.124;5.196;2023-05-16T06:33:35;102073.00;;;23.50
20736;BMP180;10528;52.124;5.196;2023-05-16T06:36:02;102077.00;;;23.20
20736;BMP180;10528;52.124;5.196;2023-05-16T06:38:29;102074.00;;;22.80
20736;BMP180;10528;52.124;5.196;2023-05-16T06:40:56;102074.00;;;22.50
20736;BMP180;10528;52.124;5.196;2023-05-16T06:43:23;102082.00;;;22.20
20736;BMP180;10528;52.124;5.196;2023-05-16T06:45:50;102081.00;;;22.20
20736;BMP180;10528;52.124;5.196;2023-05-16T06:48:17;102085.00;;;22.20
20736;BMP180;10528;52.124;5.196;2023-05-16T06:50:49;102076.00;;;22.20
20736;BMP180;10528;52.124;5.196;2023-05-16T06:53:18;102079.00;;;22.10
20736;BMP180;10528;52.124;5.196;2023-05-16T06:55:46;102082.00;;;22.10
20736;BMP180;10528;52.124;5.196;2023-05-16T06:58:13;102071.00;;;22.00
20736;BMP180;10528;52.124;5.196;2023-05-16T07:00:40;102083.00;;;21.90
20736;BMP180;10528;52.124;5.196;2023-05-16T07:03:07;102075.00;;;21.80
20736;BMP180;10528;52.124;5.196;2023-05-16T07:05:34;102070.00;;;21.80
20736;BMP180;10528;52.124;5.196;2023-05-16T07:08:01;102079.00;;;21.80
20736;BMP180;10528;52.124;5.196;2023-05-16T07:10:29;102070.00;;;21.80
20736;BMP180;10528;52.124;5.196;2023-05-16T07:12:56;102073.00;;;21.80
20736;BMP180;10528;52.124;5.196;2023-05-16T07:15:24;102081.00;;;21.80
20736;BMP180;10528;52.124;5.196;2023-05-16T07:17:51;102072.00;;;21.80
20736;BMP180;10528;52.124;5.196;2023-05-16T07:20:18;102086.00;;;21.70
20736;BMP180;10528;52.124;5.196;2023-05-16T07:22:45;102084.00;;;21.60
20736;BMP180;10528;52.124;5.196;2023-05-16T07:25:12;102100.00;;;21.50
20736;BMP180;10528;52.124;5.196;2023-05-16T07:27:41;102095.00;;;21.30
20736;BMP180;10528;52.124;5.196;2023-05-16T07:30:12;102082.00;;;21.10
20736;BMP180;10528;52.124;5.196;2023-05-16T07:32:40;102092.00;;;21.00
20736;BMP180;10528;52.124;5.196;2023-05-16T07:35:07;102090.00;;;21.00
20736;BMP180;10528;52.124;5.196;2023-05-16T07:37:35;102102.00;;;21.20
20736;BMP180;10528;52.124;5.196;2023-05-16T07:40:02;102094.00;;;21.20
20736;BMP180;10528;52.124;5.196;2023-05-16T07:42:30;102093.00;;;21.10
20736;BMP180;10528;52.124;5.196;2023-05-16T07:44:57;102104.00;;;21.00
20736;BMP180;10528;52.124;5.196;2023-05-16T07:47:24;102093.00;;;20.80
20736;BMP180;10528;52.124;5.196;2023-05-16T07:49:51;102096.00;;;20.70
20736;BMP180;10528;52.124;5.196;2023-05-16T07:52:18;102095.00;;;20.60
20736;BMP180;10528;52.124;5.196;2023-05-16T07:54:46;102102.00;;;20.50
20736;BMP180;10528;52.124;5.196;2023-05-16T07:57:14;102099.00;;;20.40
20736;BMP180;10528;52.124;5.196;2023-05-16T07:59:42;102091.00;;;20.70
20736;BMP180;10528;52.124;5.196;2023-05-16T08:02:10;102098.00;;;20.80
20736;BMP180;10528;52.124;5.196;2023-05-16T08:04:37;102097.00;;;21.30
20736;BMP180;10528;52.124;5.196;2023-05-16T08:07:04;102103.00;;;21.90
20736;BMP180;10528;52.124;5.196;2023-05-16T08:09:31;102098.00;;;22.40
20736;BMP180;10528;52.124;5.196;2023-05-16T08:11:58;102089.00;;;22.70
20736;BMP180;10528;52.124;5.196;2023-05-16T08:14:30;102102.00;;;23.20
20736;BMP180;10528;52.124;5.196;2023-05-16T08:16:59;102102.00;;;23.20
20736;BMP180;10528;52.124;5.196;2023-05-16T08:19:26;102106.00;;;23.00
20736;BMP180;10528;52.124;5.196;2023-05-16T08:21:53;102112.00;;;22.80
20736;BMP180;10528;52.124;5.196;2023-05-16T08:24:20;102112.00;;;22.90
20736;BMP180;10528;52.124;5.196;2023-05-16T08:26:47;102106.00;;;23.00
20736;BMP180;10528;52.124;5.196;2023-05-16T08:29:14;102114.00;;;23.00
20736;BMP180;10528;52.124;5.196;2023-05-16T08:31:41;102102.00;;;22.80
20736;BMP180;10528;52.124;5.196;2023-05-16T08:34:08;102114.00;;;22.70
20736;BMP180;10528;52.124;5.196;2023-05-16T08:36:36;102108.00;;;22.60
20736;BMP180;10528;52.124;5.196;2023-05-16T08:39:03;102102.00;;;22.60
20736;BMP180;10528;52.124;5.196;2023-05-16T08:41:30;102097.00;;;22.70
20736;BMP180;10528;52.124;5.196;2023-05-16T08:43:57;102112.00;;;22.60
20736;BMP180;10528;52.124;5.196;2023-05-16T08:46:25;102110.00;;;22.40
20736;BMP180;10528;52.124;5.196;2023-05-16T08:48:59;102099.00;;;22.20
20736;BMP180;10528;52.124;5.196;2023-05-16T08:51:31;102106.00;;;22.20
20736;BMP180;10528;52.124;5.196;2023-05-16T08:54:05;102100.00;;;22.20
20736;BMP180;10528;52.124;5.196;2023-05-16T08:56:33;102104.00;;;22.20
20736;BMP180;10528;52.124;5.196;2023-05-16T08:59:02;102104.00;;;22.30
20736;BMP180;10528;52.124;5.196;2023-05-16T09:01:30;102105.00;;;22.20
20736;BMP180;10528;52.124;5.196;2023-05-16T09:04:03;102101.00;;;22.20
20736;BMP180;10528;52.124;5.196;2023-05-16T09:06:31;102094.00;;;22.20
20736;BMP180;10528;52.124;5.196;2023-05-16T09:08:58;102098.00;;;22.20
20736;BMP180;10528;52.124;5.196;2023-05-16T09:11:24;102099.00;;;22.20
20736;BMP180;10528;52.124;5.196;2023-05-16T09:13:51;102095.00;;;22.20
20736;BMP180;10528;52.124;5.196;2023-05-16T09:16:20;102105.00;;;22.20
20736;BMP180;10528;52.124;5.196;2023-05-16T09:18:55;102116.00;;;22.20
20736;BMP180;10528;52.124;5.196;2023-05-16T09:21:31;102117.00;;;22.20
20736;BMP180;10528;52.124;5.196;2023-05-16T09:24:06;102118.00;;;22.20
20736;BMP180;10528;52.124;5.196;2023-05-16T09:26:38;102110.00;;;22.30
20736;BMP180;10528;52.124;5.196;2023-05-16T09:29:12;102119.00;;;22.10
20736;BMP180;10528;52.124;5.196;2023-05-16T09:31:39;102125.00;;;22.20
20736;BMP180;10528;52.124;5.196;2023-05-16T09:34:09;102112.00;;;22.20
20736;BMP180;10528;52.124;5.196;2023-05-16T09:36:37;102118.00;;;22.10
20736;BMP180;10528;52.124;5.196;2023-05-16T09:39:07;102116.00;;;22.10
20736;BMP180;10528;52.124;5.196;2023-05-16T09:41:34;102120.00;;;22.20
20736;BMP180;10528;52.124;5.196;2023-05-16T09:44:05;102118.00;;;22.30
20736;BMP180;10528;52.124;5.196;2023-05-16T09:46:37;102122.00;;;22.20
20736;BMP180;10528;52.124;5.196;2023-05-16T09:49:04;102125.00;;;22.30
20736;BMP180;10528;52.124;5.196;2023-05-16T09:51:32;102129.00;;;22.30
20736;BMP180;10528;52.124;5.196;2023-05-16T09:53:59;102119.00;;;22.30
20736;BMP180;10528;52.124;5.196;2023-05-16T09:56:26;102121.00;;;22.30
20736;BMP180;10528;52.124;5.196;2023-05-16T09:58:53;102118.00;;;22.40
20736;BMP180;10528;52.124;5.196;2023-05-16T10:01:20;102129.00;;;22.40
20736;BMP180;10528;52.124;5.196;2023-05-16T10:03:47;102127.00;;;22.50
20736;BMP180;10528;52.124;5.196;2023-05-16T10:06:15;102127.00;;;22.50
20736;BMP180;10528;52.124;5.196;2023-05-16T10:08:43;102134.00;;;22.60
20736;BMP180;10528;52.124;5.196;2023-05-16T10:11:10;102135.00;;;22.60
20736;BMP180;10528;52.124;5.196;2023-05-16T10:13:38;102133.00;;;22.60
20736;BMP180;10528;52.124;5.196;2023-05-16T10:16:10;102128.00;;;22.50
20736;BMP180;10528;52.124;5.196;2023-05-16T10:18:39;102136.00;;;22.60
20736;BMP180;10528;52.124;5.196;2023-05-16T10:21:13;102128.00;;;22.50
20736;BMP180;10528;52.124;5.196;2023-05-16T10:23:43;102134.00;;;22.40
20736;BMP180;10528;52.124;5.196;2023-05-16T10:26:16;102126.00;;;22.50
20736;BMP180;10528;52.124;5.196;2023-05-16T10:28:44;102115.00;;;22.50
20736;BMP180;10528;52.124;5.196;2023-05-16T10:31:12;102125.00;;;22.60
20736;BMP180;10528;52.124;5.196;2023-05-16T10:33:40;102127.00;;;22.70
20736;BMP180;10528;52.124;5.196;2023-05-16T10:36:11;102120.00;;;22.80
20736;BMP180;10528;52.124;5.196;2023-05-16T10:38:39;102127.00;;;22.80
20736;BMP180;10528;52.124;5.196;2023-05-16T10:41:08;102132.00;;;22.90
20736;BMP180;10528;52.124;5.196;2023-05-16T10:43:35;102131.00;;;22.90
20736;BMP180;10528;52.124;5.196;2023-05-16T10:46:10;102127.00;;;22.90
20736;BMP180;10528;52.124;5.196;2023-05-16T10:48:39;102129.00;;;22.90
20736;BMP180;10528;52.124;5.196;2023-05-16T10:51:35;102125.00;;;22.90
20736;BMP180;10528;52.124;5.196;2023-05-16T10:54:09;102125.00;;;22.80
20736;BMP180;10528;52.124;5.196;2023-05-16T10:56:37;102121.00;;;22.70
20736;BMP180;10528;52.124;5.196;2023-05-16T10:59:21;102134.00;;;22.70
20736;BMP180;10528;52.124;5.196;2023-05-16T11:01:53;102131.00;;;22.70
20736;BMP180;10528;52.124;5.196;2023-05-16T11:04:21;102130.00;;;22.80
20736;BMP180;10528;52.124;5.196;2023-05-16T11:06:52;102133.00;;;22.80
20736;BMP180;10528;52.124;5.196;2023-05-16T11:09:25;102132.00;;;22.90
20736;BMP180;10528;52.124;5.196;2023-05-16T11:12:01;102134.00;;;23.00
20736;BMP180;10528;52.124;5.196;2023-05-16T11:17:22;102129.00;;;23.10
20736;BMP180;10528;52.124;5.196;2023-05-16T11:19:57;102128.00;;;23.10
20736;BMP180;10528;52.124;5.196;2023-05-16T11:22:33;102119.00;;;23.10
20736;BMP180;10528;52.124;5.196;2023-05-16T11:25:08;102134.00;;;23.00
20736;BMP180;10528;52.124;5.196;2023-05-16T11:27:44;102130.00;;;22.90
20736;BMP180;10528;52.124;5.196;2023-05-16T11:32:43;102136.00;;;22.90
20736;BMP180;10528;52.124;5.196;2023-05-16T11:35:14;102131.00;;;22.90
20736;BMP180;10528;52.124;5.196;2023-05-16T11:37:42;102130.00;;;22.90
20736;BMP180;10528;52.124;5.196;2023-05-16T11:40:11;102140.00;;;22.80
20736;BMP180;10528;52.124;5.196;2023-05-16T11:42:42;102149.00;;;22.80
20736;BMP180;10528;52.124;5.196;2023-05-16T11:45:15;102150.00;;;22.70
20736;BMP180;10528;52.124;5.196;2023-05-16T11:47:44;102156.00;;;22.70
20736;BMP180;10528;52.124;5.196;2023-05-16T11:50:14;102158.00;;;22.70
20736;BMP180;10528;52.124;5.196;2023-05-16T11:52:50;102153.00;;;22.50
20736;BMP180;10528;52.124;5.196;2023-05-16T11:55:22;102148.00;;;22.50
20736;BMP180;10528;52.124;5.196;2023-05-16T11:58:06;102151.00;;;22.40
20736;BMP180;10528;52.124;5.196;2023-05-16T12:00:33;102149.00;;;22.50
20736;BMP180;10528;52.124;5.196;2023-05-16T12:03:03;102146.00;;;22.50
20736;BMP180;10528;52.124;5.196;2023-05-16T12:05:32;102146.00;;;22.60
20736;BMP180;10528;52.124;5.196;2023-05-16T12:08:02;102144.00;;;22.50
20736;BMP180;10528;52.124;5.196;2023-05-16T12:10:31;102157.00;;;22.60
20736;BMP180;10528;52.124;5.196;2023-05-16T12:13:01;102152.00;;;22.60
20736;BMP180;10528;52.124;5.196;2023-05-16T12:15:29;102140.00;;;22.70
20736;BMP180;10528;52.124;5.196;2023-05-16T12:17:57;102148.00;;;22.70
20736;BMP180;10528;52.124;5.196;2023-05-16T12:20:24;102142.00;;;22.70
20736;BMP180;10528;52.124;5.196;2023-05-16T12:22:51;102144.00;;;22.70
20736;BMP180;10528;52.124;5.196;2023-05-16T12:25:31;102145.00;;;22.70
20736;BMP180;10528;52.124;5.196;2023-05-16T12:28:01;102152.00;;;22.70
20736;BMP180;10528;52.124;5.196;2023-05-16T12:30:31;102150.00;;;22.70
20736;BMP180;10528;52.124;5.196;2023-05-16T12:35:32;102161.00;;;22.60
20736;BMP180;10528;52.124;5.196;2023-05-16T12:38:03;102152.00;;;22.60
20736;BMP180;10528;52.124;5.196;2023-05-16T12:40:31;102145.00;;;22.70
20736;BMP180;10528;52.124;5.196;2023-05-16T12:42:58;102139.00;;;22.70
20736;BMP180;10528;52.124;5.196;2023-05-16T12:45:26;102144.00;;;22.60
20736;BMP180;10528;52.124;5.196;2023-05-16T12:47:53;102144.00;;;22.70
20736;BMP180;10528;52.124;5.196;2023-05-16T12:50:21;102145.00;;;22.60
20736;BMP180;10528;52.124;5.196;2023-05-16T12:52:53;102154.00;;;22.60
20736;BMP180;10528;52.124;5.196;2023-05-16T12:55:21;102154.00;;;22.60
20736;BMP180;10528;52.124;5.196;2023-05-16T12:57:49;102157.00;;;22.60
20736;BMP180;10528;52.124;5.196;2023-05-16T13:00:19;102159.00;;;22.60
20736;BMP180;10528;52.124;5.196;2023-05-16T13:02:47;102162.00;;;22.60
20736;BMP180;10528;52.124;5.196;2023-05-16T13:05:15;102154.00;;;22.50
20736;BMP180;10528;52.124;5.196;2023-05-16T13:07:43;102159.00;;;22.50
20736;BMP180;10528;52.124;5.196;2023-05-16T13:10:10;102149.00;;;22.50
20736;BMP180;10528;52.124;5.196;2023-05-16T13:12:41;102154.00;;;22.40
20736;BMP180;10528;52.124;5.196;2023-05-16T13:15:10;102163.00;;;22.50
20736;BMP180;10528;52.124;5.196;2023-05-16T13:17:39;102154.00;;;22.40
20736;BMP180;10528;52.124;5.196;2023-05-16T13:20:07;102155.00;;;22.30
20736;BMP180;10528;52.124;5.196;2023-05-16T13:22:35;102153.00;;;22.30
20736;BMP180;10528;52.124;5.196;2023-05-16T13:25:04;102151.00;;;22.30
20736;BMP180;10528;52.124;5.196;2023-05-16T13:27:32;102155.00;;;22.30
20736;BMP180;10528;52.124;5.196;2023-05-16T13:30:00;102149.00;;;22.40
20736;BMP180;10528;52.124;5.196;2023-05-16T13:32:27;102159.00;;;22.40
20736;BMP180;10528;52.124;5.196;2023-05-16T13:34:54;102143.00;;;22.30
20736;BMP180;10528;52.124;5.196;2023-05-16T13:37:21;102149.00;;;22.30
20736;BMP180;10528;52.124;5.196;2023-05-16T13:39:50;102149.00;;;22.20
20736;BMP180;10528;52.124;5.196;2023-05-16T13:42:18;102154.00;;;22.30
20736;BMP180;10528;52.124;5.196;2023-05-16T13:44:45;102155.00;;;22.30
20736;BMP180;10528;52.124;5.196;2023-05-16T13:47:12;102156.00;;;22.30
20736;BMP180;10528;52.124;5.196;2023-05-16T13:49:39;102162.00;;;22.30
20736;BMP180;10528;52.124;5.196;2023-05-16T13:52:06;102158.00;;;22.30
20736;BMP180;10528;52.124;5.196;2023-05-16T13:54:33;102158.00;;;22.20
20736;BMP180;10528;52.124;5.196;2023-05-16T13:57:00;102159.00;;;22.30
20736;BMP180;10528;52.124;5.196;2023-05-16T13:59:28;102147.00;;;22.30
20736;BMP180;10528;52.124;5.196;2023-05-16T14:02:15;102155.00;;;22.40
20736;BMP180;10528;52.124;5.196;2023-05-16T14:04:42;102150.00;;;22.50
20736;BMP180;10528;52.124;5.196;2023-05-16T14:07:09;102153.00;;;22.60
20736;BMP180;10528;52.124;5.196;2023-05-16T14:09:36;102155.00;;;22.60
20736;BMP180;10528;52.124;5.196;2023-05-16T14:12:06;102168.00;;;22.60
20736;BMP180;10528;52.124;5.196;2023-05-16T14:14:34;102153.00;;;22.60
20736;BMP180;10528;52.124;5.196;2023-05-16T14:17:01;102156.00;;;22.50
20736;BMP180;10528;52.124;5.196;2023-05-16T14:19:29;102161.00;;;22.60
20736;BMP180;10528;52.124;5.196;2023-05-16T14:21:57;102155.00;;;22.60